Terminal Aerodrome Forecast
Issued by NWS

Home | Current Version | Previous Version | Text Only | Print | Product List | Glossary On
Versions: 1 2 3 4 5 6 7 8 9 10 11 12 13 14
000
FTUS45 KGJT 262339
TAFASE
TAF
KASE 262339Z 2700/2724 24008G18KT P6SM VCSH FEW080 BKN120
     FM270300 21006KT P6SM BKN200
     FM271200 VRB03KT P6SM VCSH BKN070
     FM272000 32008G16KT P6SM -SHRA BKN070=

USA.gov is the U.S. government's official web portal to all federal, state and local government web resources and services.